createdAt,value
2018-08-06T00:01:27.776Z,101265.45
2018-08-06T00:03:57.226Z,101258.91
2018-08-06T00:06:27.727Z,101265.55
2018-08-06T00:08:57.695Z,101267.16
2018-08-06T00:11:27.310Z,101269.34
2018-08-06T00:13:56.878Z,101272.83
2018-08-06T00:16:26.517Z,101282.56
2018-08-06T00:18:55.830Z,101277.22
2018-08-06T00:21:26.008Z,101283.66
2018-08-06T00:23:55.591Z,101279.28
2018-08-06T00:26:25.358Z,101284.66
2018-08-06T00:28:54.981Z,101276.70
2018-08-06T00:31:24.636Z,101279.23
2018-08-06T00:33:54.070Z,101272.02
2018-08-06T00:36:23.468Z,101272.73
2018-08-06T00:38:53.051Z,101273.83
2018-08-06T00:41:22.607Z,101276.31
2018-08-06T00:43:52.730Z,101271.28
2018-08-06T00:46:22.442Z,101267.52
2018-08-06T00:48:51.966Z,101259.94
2018-08-06T00:51:21.618Z,101263.87
2018-08-06T00:53:51.256Z,101263.79
2018-08-06T00:56:20.740Z,101265.55
2018-08-06T00:58:50.027Z,101265.64
2018-08-06T01:01:19.784Z,101269.44
2018-08-06T01:03:49.209Z,101272.86
2018-08-06T01:06:18.513Z,101272.22
2018-08-06T01:08:48.217Z,101281.66
2018-08-06T01:11:17.973Z,101283.20
2018-08-06T01:13:47.403Z,101273.65
2018-08-06T01:16:17.082Z,101279.89
2018-08-06T01:18:46.517Z,101270.06
2018-08-06T01:21:15.933Z,101273.01
2018-08-06T01:23:45.462Z,101272.19
2018-08-06T01:26:14.814Z,101275.80
2018-08-06T01:28:44.113Z,101282.92
2018-08-06T01:31:13.786Z,101279.64
2018-08-06T01:33:43.111Z,101282.94
2018-08-06T01:36:12.637Z,101280.64
2018-08-06T01:38:42.523Z,101281.37
2018-08-06T01:41:12.006Z,101205.64
2018-08-06T01:43:41.746Z,101284.64
2018-08-06T01:46:11.330Z,101291.31
2018-08-06T01:48:43.917Z,101293.75
2018-08-06T01:51:13.541Z,101287.39
2018-08-06T01:53:42.945Z,101291.59
2018-08-06T01:56:12.283Z,101296.05
2018-08-06T01:58:42.089Z,101296.48
2018-08-06T02:01:11.457Z,101291.69
2018-08-06T02:03:40.821Z,101292.71
2018-08-06T02:06:10.437Z,101295.03
2018-08-06T02:08:39.841Z,101294.52
2018-08-06T02:11:09.277Z,101295.55
2018-08-06T02:13:39.172Z,101293.70
2018-08-06T02:16:08.632Z,101292.97
2018-08-06T02:18:38.109Z,101288.66
2018-08-06T02:21:14.233Z,101282.81
2018-08-06T02:23:43.754Z,101281.48
2018-08-06T02:26:13.350Z,101280.57
2018-08-06T02:28:42.987Z,101284.66
2018-08-06T02:31:12.516Z,101274.16
2018-08-06T02:33:41.933Z,101282.16
2018-08-06T02:36:11.629Z,101278.27
2018-08-06T02:38:41.182Z,101289.92
2018-08-06T02:41:10.605Z,101285.10
2018-08-06T02:43:40.333Z,101286.52
2018-08-06T02:46:09.914Z,101283.63
2018-08-06T02:48:39.314Z,101282.66
2018-08-06T02:51:08.837Z,101284.65
2018-08-06T02:53:38.305Z,101283.85
2018-08-06T02:56:08.459Z,101288.20
2018-08-06T02:58:37.812Z,101284.94
2018-08-06T03:01:07.317Z,101283.48
2018-08-06T03:03:36.713Z,101287.02
2018-08-06T03:06:07.045Z,101289.09
2018-08-06T03:08:36.730Z,101287.26
2018-08-06T03:11:06.297Z,101299.09
2018-08-06T03:13:36.056Z,101293.88
2018-08-06T03:16:05.929Z,101293.23
2018-08-06T03:18:35.360Z,101286.12
2018-08-06T03:21:05.505Z,101285.25
2018-08-06T03:23:35.010Z,101291.37
2018-08-06T03:26:04.564Z,101296.70
2018-08-06T03:28:34.204Z,101301.02
2018-08-06T03:31:03.284Z,101301.00
2018-08-06T03:33:32.851Z,101295.80
2018-08-06T03:36:02.436Z,101293.30
2018-08-06T03:38:31.861Z,101291.45
2018-08-06T03:41:01.241Z,101295.45
2018-08-06T03:43:30.754Z,101294.86
2018-08-06T03:46:00.161Z,101290.36
2018-08-06T03:48:29.693Z,101294.86
2018-08-06T03:50:59.104Z,101295.06
2018-08-06T03:53:28.492Z,101295.06
2018-08-06T03:55:57.919Z,101303.61
2018-08-06T03:58:27.595Z,101307.02
2018-08-06T04:00:56.895Z,101313.25
2018-08-06T04:03:26.483Z,101301.37
2018-08-06T04:05:56.032Z,101295.34
2018-08-06T04:08:25.435Z,101296.27
2018-08-06T04:10:54.784Z,101295.17
2018-08-06T04:13:24.463Z,101297.02
2018-08-06T04:15:53.840Z,101294.34
2018-08-06T04:18:23.428Z,101292.34
2018-08-06T04:20:53.228Z,101293.19
2018-08-06T04:23:22.563Z,101297.67
2018-08-06T04:25:51.931Z,101297.47
2018-08-06T04:28:21.464Z,101300.56
2018-08-06T04:30:50.944Z,101297.56
2018-08-06T04:33:20.348Z,101298.78
2018-08-06T04:35:49.988Z,101291.23
2018-08-06T04:38:19.557Z,101299.62
2018-08-06T04:40:48.931Z,101300.88
2018-08-06T04:43:18.608Z,101297.98
2018-08-06T04:45:47.980Z,101208.00
2018-08-06T04:48:17.396Z,101301.25
2018-08-06T04:50:46.900Z,101306.58
2018-08-06T04:53:16.277Z,101310.41
2018-08-06T04:55:45.817Z,101302.44
2018-08-06T04:58:15.648Z,101313.01
2018-08-06T05:00:45.337Z,101319.25
2018-08-06T05:03:15.013Z,101315.85
2018-08-06T05:05:44.553Z,101318.13
2018-08-06T05:08:15.302Z,101319.98
2018-08-06T05:10:44.664Z,101324.12
2018-08-06T05:13:14.538Z,101320.94
2018-08-06T05:15:43.815Z,101327.16
2018-08-06T05:18:12.809Z,101331.16
2018-08-06T05:20:42.567Z,101331.16
2018-08-06T05:23:11.575Z,101332.80
2018-08-06T05:25:41.083Z,101327.38
2018-08-06T05:28:10.905Z,101328.28
2018-08-06T05:30:40.248Z,101328.00
2018-08-06T05:33:09.686Z,101329.02
2018-08-06T05:35:39.398Z,101329.91
2018-08-06T05:38:08.775Z,101329.39
2018-08-06T05:40:38.148Z,101334.47
2018-08-06T05:43:08.133Z,101334.81
2018-08-06T05:45:37.585Z,101334.44
2018-08-06T05:48:07.111Z,101337.61
2018-08-06T05:50:36.803Z,101336.14
2018-08-06T05:53:06.154Z,101347.64
2018-08-06T05:55:35.662Z,101347.12
2018-08-06T05:58:05.586Z,101349.09
2018-08-06T06:00:34.989Z,101349.34
2018-08-06T06:03:04.801Z,101348.43
2018-08-06T06:05:34.414Z,101352.80
2018-08-06T06:08:03.713Z,101351.77
2018-08-06T06:10:33.608Z,101361.48
2018-08-06T06:13:03.349Z,101363.35
2018-08-06T06:15:32.686Z,101363.17
2018-08-06T06:18:32.811Z,101362.72
2018-08-06T06:21:04.671Z,101366.42
2018-08-06T06:23:42.647Z,101372.73
2018-08-06T06:26:12.263Z,101372.47
2018-08-06T06:28:41.910Z,101378.17
2018-08-06T06:31:11.621Z,101382.68
2018-08-06T06:33:41.269Z,101356.80
2018-08-06T06:36:10.645Z,101370.10
2018-08-06T06:38:40.484Z,101365.40
2018-08-06T06:41:09.956Z,101369.28
2018-08-06T06:43:39.427Z,101368.37
2018-08-06T06:46:08.936Z,101362.33
2018-08-06T06:48:38.377Z,101362.11
2018-08-06T06:51:07.823Z,101370.86
2018-08-06T06:53:37.171Z,101372.89
2018-08-06T06:56:07.334Z,101371.17
2018-08-06T06:58:36.769Z,101371.66
2018-08-06T07:01:06.408Z,101394.27
2018-08-06T07:03:35.958Z,101388.70
2018-08-06T07:06:05.208Z,101389.14
2018-08-06T07:08:34.455Z,101388.52
2018-08-06T07:11:03.890Z,101402.05
2018-08-06T07:13:33.298Z,101393.37
2018-08-06T07:16:03.103Z,101389.33
2018-08-06T07:18:32.600Z,101391.08
2018-08-06T07:21:01.951Z,101396.75
2018-08-06T07:23:31.790Z,101397.27
2018-08-06T07:26:01.127Z,101395.94
2018-08-06T07:28:30.928Z,101388.55
2018-08-06T07:31:00.790Z,101394.52
2018-08-06T07:33:30.295Z,101402.53
2018-08-06T07:35:59.752Z,101405.83
2018-08-06T07:38:29.410Z,101402.02
2018-08-06T07:40:59.023Z,101401.36
2018-08-06T07:43:28.813Z,101394.52
2018-08-06T07:45:58.591Z,101402.63
2018-08-06T07:48:28.513Z,101400.25
2018-08-06T07:50:57.761Z,101400.39
2018-08-06T07:53:28.573Z,101401.39
2018-08-06T07:55:58.054Z,101400.39
2018-08-06T07:58:27.576Z,101401.20
2018-08-06T08:00:57.326Z,101402.76
2018-08-06T08:03:26.762Z,101400.84
2018-08-06T08:05:56.017Z,101396.63
2018-08-06T08:08:25.977Z,101394.78
2018-08-06T08:10:55.443Z,101390.02
2018-08-06T08:13:24.821Z,101391.81
2018-08-06T08:15:54.717Z,101391.02
2018-08-06T08:18:24.120Z,101382.30
2018-08-06T08:20:53.660Z,101381.22
2018-08-06T08:23:23.350Z,101388.08
2018-08-06T08:25:52.899Z,101383.22
2018-08-06T08:28:22.630Z,101384.28
2018-08-06T08:30:52.438Z,101380.44
2018-08-06T08:33:22.149Z,101395.26
2018-08-06T08:35:51.651Z,101393.01
2018-08-06T08:38:21.317Z,101383.13
2018-08-06T08:40:50.780Z,101379.17
2018-08-06T08:43:20.229Z,101381.11
2018-08-06T08:45:50.116Z,101375.28
2018-08-06T08:48:19.583Z,101377.42
2018-08-06T08:50:49.124Z,101373.21
2018-08-06T08:53:18.855Z,101372.34
2018-08-06T08:55:48.219Z,101361.27
2018-08-06T08:58:17.985Z,101367.92
2018-08-06T09:00:48.275Z,101353.90
2018-08-06T09:03:17.865Z,101362.13
2018-08-06T09:05:47.264Z,101363.20
2018-08-06T09:08:17.056Z,101362.13
2018-08-06T09:10:46.401Z,101370.45
2018-08-06T09:13:15.778Z,101368.23
2018-08-06T09:15:45.332Z,101377.23
2018-08-06T09:18:14.870Z,101370.42
2018-08-06T09:20:44.309Z,101382.19
2018-08-06T09:23:13.722Z,101380.11
2018-08-06T09:25:43.204Z,101389.53
2018-08-06T09:28:12.631Z,101391.37
2018-08-06T09:30:42.114Z,101393.76
2018-08-06T09:33:11.671Z,101392.41
2018-08-06T09:35:41.301Z,101399.11
2018-08-06T09:38:11.071Z,101400.13
2018-08-06T09:40:40.422Z,101393.58
2018-08-06T09:43:09.754Z,101405.40
2018-08-06T09:45:39.237Z,101399.98
2018-08-06T09:48:08.828Z,101401.42
2018-08-06T09:50:38.458Z,101401.11
2018-08-06T09:53:08.100Z,101401.55
2018-08-06T09:55:37.623Z,101405.72
2018-08-06T09:58:07.056Z,101412.27
2018-08-06T10:00:45.682Z,101407.20
2018-08-06T10:03:15.128Z,101411.70
2018-08-06T10:05:44.736Z,101408.25
2018-08-06T10:08:14.133Z,101419.06
2018-08-06T10:10:43.711Z,101417.63
2018-08-06T10:13:13.338Z,101416.98
2018-08-06T10:15:42.870Z,101417.45
2018-08-06T10:18:12.352Z,101419.84
2018-08-06T10:20:41.822Z,101418.99
2018-08-06T10:23:11.318Z,101415.30
2018-08-06T10:25:40.737Z,101420.11
2018-08-06T10:28:10.450Z,101424.98
2018-08-06T10:30:39.981Z,101423.02
2018-08-06T10:33:11.231Z,101430.64
2018-08-06T10:35:41.233Z,101430.76
2018-08-06T10:38:10.904Z,101427.98
2018-08-06T10:40:40.383Z,101436.00
2018-08-06T10:43:10.081Z,101438.20
2018-08-06T10:45:39.425Z,101436.00
2018-08-06T10:48:08.996Z,101435.28
2018-08-06T10:50:38.697Z,101432.89
2018-08-06T10:53:08.388Z,101427.34
2018-08-06T10:55:37.765Z,101430.80
2018-08-06T10:58:07.437Z,101434.72
2018-08-06T11:00:36.879Z,101428.68
2018-08-06T11:03:06.355Z,101432.15
2018-08-06T11:05:35.949Z,101439.85
2018-08-06T11:08:05.537Z,101432.15
2018-08-06T11:10:34.976Z,101440.02
2018-08-06T11:13:04.742Z,101439.89
2018-08-06T11:15:34.212Z,101444.21
2018-08-06T11:18:03.616Z,101445.97
2018-08-06T11:20:33.359Z,101451.06
2018-08-06T11:23:02.987Z,101446.84
2018-08-06T11:25:32.436Z,101444.95
2018-08-06T11:28:02.115Z,101444.89
2018-08-06T11:31:34.608Z,101442.14
2018-08-06T11:34:04.488Z,101437.45
2018-08-06T11:36:33.879Z,101436.92
2018-08-06T11:39:03.557Z,101436.06
2018-08-06T11:41:33.362Z,101439.41
2018-08-06T11:44:03.114Z,101440.06
2018-08-06T11:46:32.351Z,101438.36
2018-08-06T11:49:02.108Z,101436.35
2018-08-06T11:51:31.171Z,101440.83
2018-08-06T11:54:00.564Z,101441.52
2018-08-06T11:56:30.243Z,101432.82
2018-08-06T11:58:59.813Z,101431.38
2018-08-06T12:01:29.281Z,101432.12
2018-08-06T12:03:58.810Z,101435.69
2018-08-06T12:06:29.273Z,101435.19
2018-08-06T12:08:58.763Z,101422.84
2018-08-06T12:11:29.919Z,101428.90
2018-08-06T12:13:59.275Z,101427.20
2018-08-06T12:16:28.700Z,101433.71
2018-08-06T12:18:58.432Z,101427.81
2018-08-06T12:21:27.791Z,101433.80
2018-08-06T12:23:57.393Z,101436.60
2018-08-06T12:26:27.386Z,101430.26
2018-08-06T12:28:56.830Z,101436.11
2018-08-06T12:31:26.460Z,101437.63
2018-08-06T12:33:56.910Z,101429.27
2018-08-06T12:36:26.448Z,101432.45
2018-08-06T12:39:18.128Z,101425.27
2018-08-06T12:41:48.012Z,101431.59
2018-08-06T12:44:17.596Z,101422.12
2018-08-06T12:46:47.128Z,101425.72
2018-08-06T12:49:16.524Z,101423.56
2018-08-06T12:51:46.028Z,101426.13
2018-08-06T12:54:15.730Z,101431.33
2018-08-06T12:56:45.302Z,101425.47
2018-08-06T12:59:14.817Z,101419.23
2018-08-06T13:01:44.416Z,101424.05
2018-08-06T13:04:13.872Z,101421.53
2018-08-06T13:06:43.319Z,101423.09
2018-08-06T13:09:13.152Z,101419.77
2018-08-06T13:11:42.719Z,101423.31
2018-08-06T13:14:12.411Z,101425.02
2018-08-06T13:16:41.992Z,101425.98
2018-08-06T13:19:11.426Z,101421.45
2018-08-06T13:21:40.713Z,101425.02
2018-08-06T13:24:10.512Z,101426.69
2018-08-06T13:26:39.737Z,101431.28
2018-08-06T13:29:09.610Z,101425.55
2018-08-06T13:31:39.438Z,101426.77
2018-08-06T13:34:08.879Z,101425.66
2018-08-06T13:36:38.170Z,101427.00
2018-08-06T13:39:09.729Z,101425.55
2018-08-06T13:41:38.745Z,101430.23
2018-08-06T13:44:08.311Z,101422.45
2018-08-06T13:46:37.999Z,101421.13
2018-08-06T13:49:07.454Z,101420.73
2018-08-06T13:51:36.823Z,101419.56
2018-08-06T13:54:06.397Z,101420.80
2018-08-06T13:56:35.747Z,101416.95
2018-08-06T13:59:05.239Z,101417.52
2018-08-06T14:01:35.074Z,101408.81
2018-08-06T14:04:05.700Z,101405.14
2018-08-06T14:06:34.834Z,101409.36
2018-08-06T14:09:05.314Z,101413.28
2018-08-06T14:11:34.639Z,101410.83
2018-08-06T14:14:11.143Z,101405.86
2018-08-06T14:16:40.810Z,101398.48
2018-08-06T14:19:10.148Z,101405.89
2018-08-06T14:21:39.775Z,101405.20
2018-08-06T14:24:09.574Z,101402.97
2018-08-06T14:26:38.979Z,101402.90
2018-08-06T14:29:08.732Z,101400.38
2018-08-06T14:31:38.352Z,101399.99
2018-08-06T14:34:07.935Z,101397.83
2018-08-06T14:36:37.706Z,101400.42
2018-08-06T14:39:10.236Z,101394.98
2018-08-06T14:41:40.235Z,101390.31
2018-08-06T14:44:10.183Z,101389.98
2018-08-06T14:46:40.348Z,101386.55
2018-08-06T14:49:09.865Z,101389.57
2018-08-06T14:51:39.466Z,101385.39
2018-08-06T14:54:08.575Z,101388.95
2018-08-06T14:56:38.332Z,101387.86
2018-08-06T14:59:07.724Z,101387.27
2018-08-06T15:01:37.355Z,101380.02
2018-08-06T15:04:06.857Z,101383.03
2018-08-06T15:06:36.301Z,101339.82
2018-08-06T15:09:08.849Z,101383.94
2018-08-06T15:11:38.446Z,101371.70
2018-08-06T15:14:08.219Z,101367.78
2018-08-06T15:16:37.944Z,101359.27
2018-08-06T15:19:07.671Z,101351.61
2018-08-06T15:21:36.908Z,101348.66
2018-08-06T15:24:07.546Z,101346.34
2018-08-06T15:26:36.906Z,101353.23
2018-08-06T15:29:06.400Z,101347.07
2018-08-06T15:31:35.994Z,101342.95
2018-08-06T15:34:05.637Z,101338.89
2018-08-06T15:36:35.164Z,101335.02
2018-08-06T15:39:05.805Z,101329.08
2018-08-06T15:41:35.220Z,101334.51
2018-08-06T15:44:04.746Z,101327.84
2018-08-06T15:46:34.239Z,101235.75
2018-08-06T15:49:03.799Z,101324.72
2018-08-06T15:51:33.272Z,101318.92
2018-08-06T15:54:02.861Z,101314.07
2018-08-06T15:56:32.329Z,101318.63
2018-08-06T15:59:08.201Z,101311.22
2018-08-06T16:01:37.664Z,101306.00
2018-08-06T16:04:07.749Z,101312.97
2018-08-06T16:06:37.164Z,101307.55
2018-08-06T16:09:08.684Z,101310.00
2018-08-06T16:11:38.498Z,101308.55
2018-08-06T16:14:07.666Z,101303.09
2018-08-06T16:16:36.915Z,101304.94
2018-08-06T16:19:06.971Z,101295.91
2018-08-06T16:21:36.143Z,101294.33
2018-08-06T16:24:05.518Z,101291.91
2018-08-06T16:26:34.833Z,101289.02
2018-08-06T16:29:05.584Z,101290.78
2018-08-06T16:31:34.933Z,101290.69
2018-08-06T16:34:04.151Z,101291.50
2018-08-06T16:36:33.522Z,101283.28
2018-08-06T16:39:02.831Z,101287.72
2018-08-06T16:41:32.088Z,101289.75
2018-08-06T16:44:01.341Z,101282.44
2018-08-06T16:46:30.526Z,101283.44
2018-08-06T16:49:00.485Z,101270.61
2018-08-06T16:51:29.935Z,101275.13
2018-08-06T16:53:59.160Z,101270.30
2018-08-06T16:56:28.487Z,101272.72
2018-08-06T16:58:57.830Z,101266.48
2018-08-06T17:01:28.119Z,101260.27
2018-08-06T17:03:57.518Z,101256.55
2018-08-06T17:06:26.733Z,101252.23
2018-08-06T17:08:55.969Z,101261.23
2018-08-06T17:11:25.594Z,101254.17
2018-08-06T17:13:54.692Z,101261.23
2018-08-06T17:16:23.977Z,101257.66
2018-08-06T17:18:53.400Z,101252.23
2018-08-06T17:21:22.506Z,101249.20
2018-08-06T17:23:51.763Z,101249.56
2018-08-06T17:26:21.206Z,101241.23
2018-08-06T17:28:50.450Z,101238.56
2018-08-06T17:31:19.601Z,101234.65
2018-08-06T17:33:49.380Z,101254.26
2018-08-06T17:36:18.911Z,101234.65
2018-08-06T17:38:48.495Z,101236.50
2018-08-06T17:41:18.836Z,101115.96
2018-08-06T17:43:48.126Z,101229.44
2018-08-06T17:46:17.415Z,101236.80
2018-08-06T17:48:47.018Z,101221.77
2018-08-06T17:51:16.476Z,101219.16
2018-08-06T17:53:45.905Z,101232.00
2018-08-06T17:56:15.424Z,101223.64
2018-08-06T17:58:44.637Z,101225.94
2018-08-06T18:01:13.992Z,101224.66
2018-08-06T18:03:43.426Z,101194.78
2018-08-06T18:06:12.628Z,101211.78
2018-08-06T18:08:41.864Z,101204.66
2018-08-06T18:11:11.483Z,101203.76
2018-08-06T18:13:40.641Z,101204.52
2018-08-06T18:16:09.958Z,101197.18
2018-08-06T18:18:39.638Z,101193.27
2018-08-06T18:21:09.085Z,101194.55
2018-08-06T18:23:38.465Z,101188.76
2018-08-06T18:26:08.202Z,101185.70
2018-08-06T18:28:37.276Z,101190.17
2018-08-06T18:31:06.494Z,101193.78
2018-08-06T18:33:35.739Z,101202.32
2018-08-06T18:36:06.081Z,101195.11
2018-08-06T18:38:35.453Z,101207.05
2018-08-06T18:41:05.672Z,101192.36
2018-08-06T18:43:34.788Z,101195.42
2018-08-06T18:46:04.064Z,101200.73
2018-08-06T18:48:33.343Z,101204.16
2018-08-06T18:51:02.505Z,101204.06
2018-08-06T18:53:31.944Z,101103.72
2018-08-06T18:56:01.442Z,101203.77
2018-08-06T18:58:30.852Z,101207.16
2018-08-06T19:01:00.135Z,101215.61
2018-08-06T19:03:29.602Z,101212.83
2018-08-06T19:05:58.750Z,101212.22
2018-08-06T19:08:28.049Z,101219.34
2018-08-06T19:10:57.512Z,101221.86
2018-08-06T19:13:31.903Z,101214.28
2018-08-06T19:16:01.173Z,101216.44
2018-08-06T19:18:35.578Z,101208.01
2018-08-06T19:21:05.257Z,101218.28
2018-08-06T19:23:34.436Z,101212.38
2018-08-06T19:26:03.918Z,101209.33
2018-08-06T19:28:33.688Z,101212.27
2018-08-06T19:31:07.927Z,101209.50
2018-08-06T19:33:37.275Z,101219.14
2018-08-06T19:36:06.349Z,101210.75
2018-08-06T19:38:35.619Z,101212.67
2018-08-06T19:41:04.964Z,101216.22
2018-08-06T19:43:38.908Z,101207.30
2018-08-06T19:46:09.035Z,101214.85
2018-08-06T19:48:38.839Z,101215.34
2018-08-06T19:51:08.014Z,101216.28
2018-08-06T19:53:37.507Z,101215.86
2018-08-06T19:56:12.153Z,101215.31
2018-08-06T19:58:41.757Z,101217.39
2018-08-06T20:01:10.989Z,101215.80
2018-08-06T20:03:40.317Z,101215.63
2018-08-06T20:06:09.608Z,101213.22
2018-08-06T20:08:38.883Z,101215.73
2018-08-06T20:11:08.250Z,101222.11
2018-08-06T20:13:37.758Z,101220.25
2018-08-06T20:16:06.815Z,101227.22
2018-08-06T20:18:36.099Z,101232.03
2018-08-06T20:21:06.005Z,101226.20
2018-08-06T20:23:35.172Z,101232.36
2018-08-06T20:26:05.425Z,101229.72
2018-08-06T20:28:35.158Z,101235.84
2018-08-06T20:31:04.365Z,101234.92
2018-08-06T20:33:33.855Z,101231.41
2018-08-06T20:36:03.560Z,101237.90
2018-08-06T20:38:32.771Z,101236.00
2018-08-06T20:41:01.922Z,101238.61
2018-08-06T20:43:31.453Z,101247.05
2018-08-06T20:46:00.568Z,101248.03
2018-08-06T20:48:29.638Z,101241.80
2018-08-06T20:50:59.380Z,101249.20
2018-08-06T20:53:29.297Z,101241.11
2018-08-06T20:55:59.138Z,101244.84
2018-08-06T20:58:29.167Z,101238.13
2018-08-06T21:00:58.397Z,101243.58
2018-08-06T21:03:27.800Z,101239.83
2018-08-06T21:05:57.027Z,101242.66
2018-08-06T21:08:26.915Z,101241.72
2018-08-06T21:10:56.140Z,101239.18
2018-08-06T21:13:25.584Z,101238.04
2018-08-06T21:15:54.759Z,101235.20
2018-08-06T21:18:23.920Z,101237.13
2018-08-06T21:20:53.412Z,101242.34
2018-08-06T21:23:22.564Z,101234.55
2018-08-06T21:25:51.870Z,101236.41
2018-08-06T21:28:21.243Z,101239.98
2018-08-06T21:30:50.347Z,101242.66
2018-08-06T21:33:19.595Z,101238.13
2018-08-06T21:35:49.682Z,100919.84
2018-08-06T21:38:18.828Z,101236.18
2018-08-06T21:40:47.989Z,101239.80
2018-08-06T21:43:17.267Z,101234.33
2018-08-06T21:45:46.865Z,101236.99
2018-08-06T21:48:15.943Z,101236.63
2018-08-06T21:50:45.192Z,101243.89
2018-08-06T21:53:14.295Z,101237.74
2018-08-06T21:55:43.398Z,101242.66
2018-08-06T21:58:12.985Z,101245.33
2018-08-06T22:00:42.741Z,101243.69
2018-08-06T22:03:14.679Z,101238.45
2018-08-06T22:05:44.217Z,101242.19
2018-08-06T22:08:13.416Z,101235.00
2018-08-06T22:10:42.959Z,101237.73
2018-08-06T22:13:12.466Z,101243.68
2018-08-06T22:15:41.748Z,101243.38
2018-08-06T22:18:12.249Z,101242.95
2018-08-06T22:20:41.719Z,101247.88
2018-08-06T22:23:11.600Z,101244.72
2018-08-06T22:25:40.978Z,101246.05
2018-08-06T22:28:12.055Z,101252.23
2018-08-06T22:30:41.400Z,101252.30
2018-08-06T22:33:10.831Z,101248.81
2018-08-06T22:35:39.942Z,101262.67
2018-08-06T22:38:09.126Z,101260.48
2018-08-06T22:40:39.243Z,101264.13
2018-08-06T22:43:09.246Z,101271.28
2018-08-06T22:45:38.592Z,101263.28
2018-08-06T22:48:08.136Z,101264.91
2018-08-06T22:50:37.377Z,101262.88
2018-08-06T22:53:06.978Z,101266.27
2018-08-06T22:55:47.315Z,101266.66
2018-08-06T22:58:16.722Z,101266.20
2018-08-06T23:00:45.859Z,101265.75
2018-08-06T23:03:15.978Z,101269.24
2018-08-06T23:05:45.254Z,101271.09
2018-08-06T23:08:14.470Z,101268.84
2018-08-06T23:10:43.850Z,101266.84
2018-08-06T23:13:12.947Z,101272.18
2018-08-06T23:15:42.152Z,101263.91
2018-08-06T23:18:11.663Z,101144.98
2018-08-06T23:20:40.925Z,101258.05
2018-08-06T23:23:10.251Z,101264.11
2018-08-06T23:25:39.711Z,101252.61
2018-08-06T23:28:09.066Z,101261.44
2018-08-06T23:30:38.376Z,101256.59
2018-08-06T23:33:08.230Z,101257.95
2018-08-06T23:35:37.523Z,101256.52
2018-08-06T23:38:07.099Z,101257.44
2018-08-06T23:40:36.609Z,101252.09
2018-08-06T23:43:06.005Z,101250.77
2018-08-06T23:45:35.176Z,101253.66
2018-08-06T23:48:05.089Z,101259.17
2018-08-06T23:50:35.314Z,101262.78
2018-08-06T23:53:04.815Z,101266.79
2018-08-06T23:55:34.369Z,101263.61
2018-08-06T23:58:04.093Z,101256.50
